Terminal Aerodrome Forecast
Issued by NWS Charleston, WV

Current Version | Previous Version | Graphics & Text | Print | Product List | Glossary On
Versions: 1 2 3 4 5 6 7 8 9 10 11 12 13 14 15 16 17 18 19 20 21 22 23 24 25 26 27 28 29 30 31 32
000
FTUS41 KRLX 170500
TAFPKB
TAF
KPKB 170523Z 1706/1806 24006KT P6SM BKN035 OVC090
     FM171200 VRB03KT P6SM SCT025
     FM171600 21012G24KT P6SM BKN250
     FM180200 24007G17KT P6SM BKN035=

USA.gov is the U.S. government's official web portal to all federal, state and local government web resources and services.